weather.gov     
National Weather Service

Terminal Aerodrome Forecast
NWS Homepage
This page is being discontinued on March 12, 2014.
The same data is available at this site. Please update your bookmarks.
Thank you, and we apologize for the inconvenience.
Please send an email to SR-SRH.Webmaster@noaa.gov with any concerns.


Current Version
Previous Version:    01  02  03  04  05  06  07  08  09  10  11  12  13  14  15  16  17  18  19  20  21  22  23  24  25  26  27  28  29  30  
   31  32  33  34  35  36  37  38  39  40  41  42  43  44  45  46  47  48  49  50  51  
[Printable]
734
FTUS41 KRLX 211500 AAA
TAFPKB
TAF AMD
KPKB 211509Z 2115/2212 22007G16KT P6SM SCT019 BKN028 OVC040
     FM211800 25007KT P6SM VCTS BKN025CB
     FM212000 25011G22KT P6SM VCTS BKN025CB
     FM212100 25013G26KT P6SM BKN035
     FM212300 29011G23KT P6SM SCT040
     FM220300 31008G16KT P6SM BKN040
     FM220500 30005KT 6SM BR BKN035
     FM220900 33004KT 3SM BR BKN015=


U.S. Dept. of Commerce
NOAA National Weather Service
1325 East West Highway
Silver Spring, MD 20910
E-mail: w-nws.webmaster@noaa.gov
Page last modified: May 16, 2007
NATIONAL WEATHER SERVICE: for Safety, for Work, for Fun - FOR LIFE